Time;durP1;ratioP1;P1;durP2;ratioP2;P2;SDS_P1;SDS_P2;PMS_P1;PMS_P2;Temp;Humidity;BMP_temperature;BMP_pressure;BME280_temperature;BME280_humidity;BME280_pressure;Samples;Min_cycle;Max_cycle;Signal;HPM_P1;HPM_P2
2023/10/29 00:00:41;;;;;;;;;;;20.10;80.50;;;;;;6278549;22;42791;-81
2023/10/29 00:03:07;;;;;;;;;;;20.10;79.90;;;;;;6278053;22;43998;-83
2023/10/29 00:05:33;;;;;;;;;;;20.10;80.40;;;;;;6277509;22;42938;-82
2023/10/29 00:07:58;;;;;;;;;;;20.20;80.30;;;;;;6276918;22;43337;-81
2023/10/29 00:10:24;;;;;;;;;;;20.00;80.20;;;;;;6278069;22;42843;-83
2023/10/29 00:12:49;;;;;;;;;;;20.20;79.90;;;;;;6277769;22;42974;-85
2023/10/29 00:15:15;;;;;;;;;;;20.20;80.50;;;;;;6278295;22;42985;-85
2023/10/29 00:17:40;;;;;;;;;;;20.20;80.30;;;;;;6277794;22;43394;-83
2023/10/29 00:20:06;;;;;;;;;;;20.00;80.20;;;;;;6277685;22;42944;-82
2023/10/29 00:22:32;;;;;;;;;;;20.20;80.70;;;;;;6277296;22;42979;-82
2023/10/29 00:24:57;;;;;;;;;;;20.10;80.30;;;;;;6277487;22;42931;-85
2023/10/29 00:27:23;;;;;;;;;;;20.10;80.10;;;;;;6277191;22;43410;-83
2023/10/29 00:29:48;;;;;;;;;;;20.10;80.10;;;;;;6277935;22;42821;-80
2023/10/29 00:32:15;;;;;;;;;;;20.10;80.10;;;;;;6278090;22;42662;-83
2023/10/29 00:34:41;;;;;;;;;;;20.10;80.20;;;;;;6278045;22;42820;-80
2023/10/29 00:37:06;;;;;;;;;;;20.20;80.30;;;;;;6277063;22;42792;-83
2023/10/29 00:39:32;;;;;;;;;;;20.00;80.20;;;;;;6277388;22;42999;-80
2023/10/29 00:41:57;;;;;;;;;;;20.20;80.30;;;;;;6277803;22;43232;-81
2023/10/29 00:44:23;;;;;;;;;;;20.10;80.20;;;;;;6278147;22;42912;-85
2023/10/29 00:46:49;;;;;;;;;;;20.00;80.10;;;;;;6277899;22;42923;-84
2023/10/29 00:49:14;;;;;;;;;;;20.20;80.00;;;;;;6278147;22;42935;-85
2023/10/29 00:51:40;;;;;;;;;;;20.10;80.10;;;;;;6277591;22;43637;-84
2023/10/29 00:54:06;;;;;;;;;;;20.20;79.60;;;;;;6277934;22;42895;-84
2023/10/29 00:56:32;;;;;;;;;;;20.10;79.70;;;;;;6277272;22;43390;-82
2023/10/29 00:58:57;;;;;;;;;;;20.00;79.90;;;;;;6277738;22;42866;-81
2023/10/29 01:01:24;;;;;;;;;;;20.10;80.10;;;;;;6278398;22;42873;-84
2023/10/29 01:03:49;;;;;;;;;;;20.10;80.00;;;;;;6277426;22;43015;-83
2023/10/29 01:06:15;;;;;;;;;;;20.10;79.70;;;;;;6277435;22;43410;-86
2023/10/29 01:08:41;;;;;;;;;;;20.10;79.80;;;;;;6276815;22;42737;-85
2023/10/29 01:11:07;;;;;;;;;;;20.20;79.90;;;;;;6277069;22;43898;-84
2023/10/29 01:13:32;;;;;;;;;;;20.10;79.70;;;;;;6277517;22;42947;-83
2023/10/29 01:15:58;;;;;;;;;;;20.20;80.00;;;;;;6277416;22;42885;-84
2023/10/29 01:18:23;;;;;;;;;;;20.10;80.00;;;;;;6277297;22;42768;-84
2023/10/29 01:20:49;;;;;;;;;;;20.10;80.10;;;;;;6276608;22;43896;-84
2023/10/29 01:23:15;;;;;;;;;;;20.00;79.70;;;;;;6276620;22;42943;-83
2023/10/29 01:25:41;;;;;;;;;;;20.10;79.90;;;;;;6277108;22;43892;-82
2023/10/29 01:28:07;;;;;;;;;;;20.10;79.70;;;;;;6277588;22;42856;-84
2023/10/29 01:30:33;;;;;;;;;;;20.20;79.40;;;;;;6277289;22;43386;-84
2023/10/29 01:32:59;;;;;;;;;;;20.40;80.00;;;;;;6277255;22;42993;-83
2023/10/29 01:35:24;;;;;;;;;;;20.10;79.70;;;;;;6277195;22;43317;-85
2023/10/29 01:37:51;;;;;;;;;;;20.10;79.70;;;;;;6278061;22;42805;-85
2023/10/29 01:40:16;;;;;;;;;;;20.10;79.70;;;;;;6277427;22;43546;-84
2023/10/29 01:42:43;;;;;;;;;;;20.30;79.30;;;;;;6277212;22;42914;-82
2023/10/29 01:45:10;;;;;;;;;;;20.00;79.50;;;;;;6277025;22;43032;-84
2023/10/29 01:47:35;;;;;;;;;;;20.10;79.80;;;;;;6277748;22;42877;-85
2023/10/29 01:50:01;;;;;;;;;;;20.20;79.20;;;;;;6276989;22;42777;-84
2023/10/29 01:52:26;;;;;;;;;;;20.10;79.80;;;;;;6277522;22;42848;-84
2023/10/29 01:54:52;;;;;;;;;;;20.10;79.70;;;;;;6277885;22;42658;-81
2023/10/29 01:57:17;;;;;;;;;;;20.40;80.20;;;;;;6277458;22;42884;-84
2023/10/29 01:59:43;;;;;;;;;;;20.10;79.70;;;;;;6280267;22;44311;-83
2023/10/29 02:02:08;;;;;;;;;;;20.00;79.70;;;;;;6283337;22;42945;-80
2023/10/29 02:04:34;;;;;;;;;;;20.40;80.50;;;;;;6284861;22;42706;-82
2023/10/29 02:06:59;;;;;;;;;;;20.10;79.20;;;;;;6278159;22;42776;-80
2023/10/29 02:09:25;;;;;;;;;;;20.20;79.70;;;;;;6277749;22;42862;-85
2023/10/29 02:11:51;;;;;;;;;;;20.10;79.70;;;;;;6277984;22;42834;-84
2023/10/29 02:14:16;;;;;;;;;;;20.10;79.20;;;;;;6276267;22;43278;-85
2023/10/29 02:16:42;;;;;;;;;;;20.20;79.70;;;;;;6277075;22;42835;-84
2023/10/29 02:19:08;;;;;;;;;;;20.10;79.70;;;;;;6276839;22;42816;-84
2023/10/29 02:21:34;;;;;;;;;;;20.10;79.70;;;;;;6277155;22;42995;-83
2023/10/29 02:24:01;;;;;;;;;;;20.10;79.60;;;;;;6277796;22;43511;-84
2023/10/29 02:26:27;;;;;;;;;;;20.20;79.70;;;;;;6277815;22;42914;-84
2023/10/29 02:28:52;;;;;;;;;;;20.10;79.60;;;;;;6277246;22;42865;-83
2023/10/29 02:31:21;;;;;;;;;;;20.00;79.70;;;;;;6277861;22;42927;-84
2023/10/29 02:33:46;;;;;;;;;;;20.00;77.90;;;;;;6277199;22;42772;-84
2023/10/29 02:36:12;;;;;;;;;;;20.10;79.30;;;;;;6277137;22;42888;-85
2023/10/29 02:38:38;;;;;;;;;;;20.10;79.70;;;;;;6277726;22;44221;-85
2023/10/29 02:41:07;;;;;;;;;;;20.00;79.60;;;;;;6277588;22;42906;-85
2023/10/29 02:43:33;;;;;;;;;;;20.00;78.30;;;;;;6277341;22;42737;-83
2023/10/29 02:45:58;;;;;;;;;;;20.00;79.40;;;;;;6277597;22;42785;-85
2023/10/29 02:48:25;;;;;;;;;;;20.00;79.00;;;;;;6277036;22;43399;-84
2023/10/29 02:50:56;;;;;;;;;;;20.20;79.70;;;;;;6277499;22;43135;-84
2023/10/29 02:53:22;;;;;;;;;;;20.10;79.60;;;;;;6277399;22;43821;-84
2023/10/29 02:55:47;;;;;;;;;;;20.00;79.60;;;;;;6277286;22;42903;-85
2023/10/29 02:58:13;;;;;;;;;;;19.90;79.50;;;;;;6276107;22;43520;-84
2023/10/29 03:00:38;;;;;;;;;;;20.00;79.40;;;;;;6276595;22;43011;-84
2023/10/29 03:03:04;;;;;;;;;;;20.40;79.10;;;;;;6276646;22;42882;-85
2023/10/29 03:05:30;;;;;;;;;;;20.10;79.50;;;;;;6276840;22;42815;-84
2023/10/29 03:07:55;;;;;;;;;;;20.10;79.40;;;;;;6277427;22;43516;-83
2023/10/29 03:10:21;;;;;;;;;;;20.00;79.00;;;;;;6277398;22;42816;-80
2023/10/29 03:12:46;;;;;;;;;;;20.00;79.10;;;;;;6277618;22;43627;-84
2023/10/29 03:15:12;;;;;;;;;;;20.00;79.20;;;;;;6276655;22;42918;-84
2023/10/29 03:17:37;;;;;;;;;;;20.00;78.70;;;;;;6274242;22;42832;-80
2023/10/29 03:20:03;;;;;;;;;;;19.90;80.10;;;;;;6276377;22;42873;-83
2023/10/29 03:22:29;;;;;;;;;;;20.00;78.80;;;;;;6276100;22;42820;-83
2023/10/29 03:24:54;;;;;;;;;;;20.00;79.30;;;;;;6275307;22;42903;-84
2023/10/29 03:27:20;;;;;;;;;;;20.10;79.20;;;;;;6275242;22;43007;-85
2023/10/29 03:29:45;;;;;;;;;;;20.10;79.40;;;;;;6276279;22;42799;-84
2023/10/29 03:32:11;;;;;;;;;;;20.10;79.20;;;;;;6275944;22;42918;-82
2023/10/29 03:34:36;;;;;;;;;;;20.10;78.80;;;;;;6275984;22;42928;-82
2023/10/29 03:37:02;;;;;;;;;;;19.90;79.40;;;;;;6277609;22;43413;-84
2023/10/29 03:39:29;;;;;;;;;;;20.00;79.20;;;;;;6277838;22;42860;-81
2023/10/29 03:41:54;;;;;;;;;;;19.90;79.10;;;;;;6277436;22;43627;-84
2023/10/29 03:44:20;;;;;;;;;;;19.90;79.10;;;;;;6276905;22;42860;-82
2023/10/29 03:46:49;;;;;;;;;;;20.00;79.20;;;;;;6276225;22;43022;-79
2023/10/29 03:49:16;;;;;;;;;;;20.00;79.20;;;;;;6250283;22;42953;-82
2023/10/29 03:51:43;;;;;;;;;;;20.20;79.30;;;;;;6250936;22;44405;-84
2023/10/29 03:54:08;;;;;;;;;;;20.00;79.40;;;;;;6277656;22;42966;-85
2023/10/29 03:56:34;;;;;;;;;;;19.90;79.20;;;;;;6277372;22;42852;-84
2023/10/29 03:58:59;;;;;;;;;;;20.00;79.00;;;;;;6276650;22;42899;-80
2023/10/29 04:01:25;;;;;;;;;;;19.80;79.60;;;;;;6276721;22;42781;-83
2023/10/29 04:03:50;;;;;;;;;;;20.20;79.90;;;;;;6277246;22;43020;-84
2023/10/29 04:06:16;;;;;;;;;;;20.00;79.20;;;;;;6276935;22;43276;-83
2023/10/29 04:08:41;;;;;;;;;;;20.00;79.30;;;;;;6276382;22;42882;-81
2023/10/29 04:11:07;;;;;;;;;;;20.00;79.40;;;;;;6277397;22;42836;-82
2023/10/29 04:13:32;;;;;;;;;;;20.10;79.30;;;;;;6277776;22;43287;-81
2023/10/29 04:15:58;;;;;;;;;;;19.90;79.10;;;;;;6276540;22;43266;-79
2023/10/29 04:18:27;;;;;;;;;;;20.10;79.30;;;;;;6277165;22;42771;-81
2023/10/29 04:20:53;;;;;;;;;;;20.10;79.00;;;;;;6277956;22;43487;-83
2023/10/29 04:23:19;;;;;;;;;;;20.00;79.00;;;;;;6277622;22;42914;-78
2023/10/29 04:25:44;;;;;;;;;;;20.10;78.60;;;;;;6282945;22;42789;-79
2023/10/29 04:28:10;;;;;;;;;;;20.20;79.30;;;;;;6286070;22;42759;-85
2023/10/29 04:30:36;;;;;;;;;;;20.00;79.20;;;;;;6287071;22;42917;-83
2023/10/29 04:33:02;;;;;;;;;;;20.10;79.20;;;;;;6279202;22;42918;-79
2023/10/29 04:35:28;;;;;;;;;;;20.00;79.20;;;;;;6277600;22;42960;-84
2023/10/29 04:37:53;;;;;;;;;;;20.00;79.30;;;;;;6277818;22;42903;-84
2023/10/29 04:40:18;;;;;;;;;;;20.00;79.20;;;;;;6277208;22;43461;-85
2023/10/29 04:42:44;;;;;;;;;;;20.20;79.20;;;;;;6277768;22;42914;-84
2023/10/29 04:45:11;;;;;;;;;;;20.00;79.10;;;;;;6276329;22;43009;-84
2023/10/29 04:47:37;;;;;;;;;;;20.10;79.80;;;;;;6276262;22;42925;-84
2023/10/29 04:50:02;;;;;;;;;;;20.30;79.40;;;;;;6277222;22;42767;-84
2023/10/29 04:52:28;;;;;;;;;;;20.60;79.40;;;;;;6277538;22;42932;-84
2023/10/29 04:54:54;;;;;;;;;;;20.10;79.20;;;;;;6277498;22;43175;-84
2023/10/29 04:57:21;;;;;;;;;;;20.10;79.40;;;;;;6277776;22;42929;-82
2023/10/29 04:59:48;;;;;;;;;;;19.90;79.00;;;;;;6276527;22;43227;-85
2023/10/29 05:02:15;;;;;;;;;;;20.10;78.60;;;;;;6276378;22;42885;-82
2023/10/29 05:04:41;;;;;;;;;;;20.00;79.10;;;;;;6277346;22;42966;-81
2023/10/29 05:07:08;;;;;;;;;;;20.10;79.20;;;;;;6276355;22;42888;-85
2023/10/29 05:09:34;;;;;;;;;;;20.10;79.10;;;;;;6275704;22;42844;-84
2023/10/29 05:11:59;;;;;;;;;;;20.10;79.10;;;;;;6277899;22;42758;-83
2023/10/29 05:14:25;;;;;;;;;;;19.90;79.10;;;;;;6277141;22;43562;-83
2023/10/29 05:16:52;;;;;;;;;;;20.00;79.10;;;;;;6275767;22;43214;-84
2023/10/29 05:19:17;;;;;;;;;;;20.20;79.40;;;;;;6276402;22;43323;-84
2023/10/29 05:21:43;;;;;;;;;;;20.00;79.20;;;;;;6277101;22;42856;-83
2023/10/29 05:24:09;;;;;;;;;;;20.00;78.90;;;;;;6276813;22;43807;-84
2023/10/29 05:26:36;;;;;;;;;;;20.10;79.10;;;;;;6276727;22;42972;-85
2023/10/29 05:29:05;;;;;;;;;;;20.00;79.20;;;;;;6277407;22;44335;-84
2023/10/29 05:31:31;;;;;;;;;;;20.60;77.70;;;;;;6277157;22;42699;-85
2023/10/29 05:33:56;;;;;;;;;;;20.10;79.30;;;;;;6277458;22;42828;-85
2023/10/29 05:36:22;;;;;;;;;;;20.10;78.90;;;;;;6276934;22;42824;-83
2023/10/29 05:38:47;;;;;;;;;;;20.10;79.40;;;;;;6277136;22;43000;-84
2023/10/29 05:41:13;;;;;;;;;;;20.10;78.90;;;;;;6276071;22;42892;-83
2023/10/29 05:43:39;;;;;;;;;;;20.20;79.00;;;;;;6276697;22;43360;-81
2023/10/29 05:46:04;;;;;;;;;;;20.20;78.90;;;;;;6249297;22;43020;-84
2023/10/29 05:48:30;;;;;;;;;;;20.00;78.90;;;;;;6276380;22;43665;-84
2023/10/29 05:50:55;;;;;;;;;;;20.10;79.00;;;;;;6250415;22;42911;-82
2023/10/29 05:53:21;;;;;;;;;;;20.10;78.90;;;;;;6277107;22;42895;-84
2023/10/29 05:55:46;;;;;;;;;;;20.10;79.00;;;;;;6275954;22;42829;-84
2023/10/29 05:58:12;;;;;;;;;;;20.10;78.90;;;;;;6276870;22;43789;-82
2023/10/29 06:00:38;;;;;;;;;;;20.10;79.00;;;;;;6276609;22;42789;-79
2023/10/29 06:03:03;;;;;;;;;;;20.00;78.90;;;;;;6249899;22;45331;-81
2023/10/29 06:05:29;;;;;;;;;;;20.10;79.00;;;;;;6249638;22;42896;-83
2023/10/29 06:07:54;;;;;;;;;;;20.00;78.90;;;;;;6276065;22;42721;-82
2023/10/29 06:10:20;;;;;;;;;;;20.00;79.10;;;;;;6250218;22;42837;-83
2023/10/29 06:12:45;;;;;;;;;;;19.90;79.10;;;;;;6276692;22;43489;-79
2023/10/29 06:15:11;;;;;;;;;;;20.10;79.10;;;;;;6276457;22;42800;-85
2023/10/29 06:17:37;;;;;;;;;;;20.10;79.60;;;;;;6276652;22;42850;-83
2023/10/29 06:20:04;;;;;;;;;;;20.00;78.90;;;;;;6275889;22;42817;-78
2023/10/29 06:22:30;;;;;;;;;;;20.00;79.00;;;;;;6249864;22;45069;-79
2023/10/29 06:24:56;;;;;;;;;;;20.00;78.90;;;;;;6276304;22;43153;-83
2023/10/29 06:27:21;;;;;;;;;;;20.10;79.00;;;;;;6276696;22;43594;-80
2023/10/29 06:29:47;;;;;;;;;;;20.10;79.00;;;;;;6249729;22;42853;-83
2023/10/29 06:32:12;;;;;;;;;;;20.10;79.10;;;;;;6275726;22;42845;-80
2023/10/29 06:34:38;;;;;;;;;;;20.10;78.90;;;;;;6275795;22;42859;-80
2023/10/29 06:37:03;;;;;;;;;;;20.20;79.10;;;;;;6276535;22;43346;-82
2023/10/29 06:39:29;;;;;;;;;;;20.00;78.90;;;;;;6277148;22;42816;-82
2023/10/29 06:41:54;;;;;;;;;;;19.90;78.90;;;;;;6275529;22;42872;-82
2023/10/29 06:44:20;;;;;;;;;;;20.10;79.00;;;;;;6277159;22;42890;-83
2023/10/29 06:46:46;;;;;;;;;;;20.10;79.00;;;;;;6248687;22;44337;-83
2023/10/29 06:49:12;;;;;;;;;;;20.00;79.00;;;;;;6277095;22;43119;-80
2023/10/29 06:51:37;;;;;;;;;;;20.10;79.10;;;;;;6279317;22;42847;-82
2023/10/29 06:54:04;;;;;;;;;;;20.10;80.20;;;;;;6285764;22;42742;-82
2023/10/29 06:56:30;;;;;;;;;;;20.00;78.90;;;;;;6288772;22;43747;-83
2023/10/29 06:58:56;;;;;;;;;;;20.00;78.90;;;;;;6277292;22;42868;-84
2023/10/29 07:01:21;;;;;;;;;;;20.00;78.90;;;;;;6275711;22;42939;-83
2023/10/29 07:03:47;;;;;;;;;;;20.10;79.00;;;;;;6275276;22;42927;-84
2023/10/29 07:06:14;;;;;;;;;;;20.10;79.10;;;;;;6276915;22;43291;-79
2023/10/29 07:08:39;;;;;;;;;;;20.10;78.90;;;;;;6279185;22;42941;-82
2023/10/29 07:11:05;;;;;;;;;;;20.10;78.90;;;;;;6278322;22;42781;-84
2023/10/29 07:13:31;;;;;;;;;;;20.10;79.40;;;;;;6278500;22;42720;-83
2023/10/29 07:15:58;;;;;;;;;;;20.00;78.90;;;;;;6277986;22;43548;-80
2023/10/29 07:18:23;;;;;;;;;;;20.10;79.40;;;;;;6278629;22;42844;-83
2023/10/29 07:20:52;;;;;;;;;;;19.90;79.10;;;;;;6278238;22;43380;-80
2023/10/29 07:23:22;;;;;;;;;;;20.10;77.60;;;;;;6277739;22;42984;-84
2023/10/29 07:25:47;;;;;;;;;;;20.00;79.40;;;;;;6277640;22;43188;-83
2023/10/29 07:28:14;;;;;;;;;;;20.20;79.50;;;;;;6280261;22;42756;-85
2023/10/29 07:30:39;;;;;;;;;;;20.20;79.70;;;;;;6278828;22;42950;-85
2023/10/29 07:33:05;;;;;;;;;;;20.20;79.30;;;;;;6281264;22;42875;-85
2023/10/29 07:35:31;;;;;;;;;;;20.20;79.30;;;;;;6278811;22;42808;-85
2023/10/29 07:37:56;;;;;;;;;;;20.00;79.10;;;;;;6278179;22;42931;-84
2023/10/29 07:40:22;;;;;;;;;;;20.30;79.30;;;;;;6277677;22;43542;-84
2023/10/29 07:42:47;;;;;;;;;;;20.10;79.30;;;;;;6251503;22;42960;-81
2023/10/29 07:45:13;;;;;;;;;;;20.10;79.40;;;;;;6277113;22;43342;-82
2023/10/29 07:47:38;;;;;;;;;;;20.10;79.10;;;;;;6276816;22;42798;-83
2023/10/29 07:50:04;;;;;;;;;;;20.20;79.40;;;;;;6277220;22;43488;-81
2023/10/29 07:52:30;;;;;;;;;;;20.30;79.10;;;;;;6276250;22;42888;-82
2023/10/29 07:54:55;;;;;;;;;;;20.30;79.50;;;;;;6277459;22;42947;-83
2023/10/29 07:57:21;;;;;;;;;;;20.20;78.90;;;;;;6276572;22;43005;-80
2023/10/29 07:59:46;;;;;;;;;;;20.00;79.30;;;;;;6277069;22;42867;-82
2023/10/29 08:02:12;;;;;;;;;;;20.20;79.50;;;;;;6277333;22;42818;-84
2023/10/29 08:04:37;;;;;;;;;;;20.20;78.90;;;;;;6276330;22;42833;-83
2023/10/29 08:07:04;;;;;;;;;;;20.20;79.00;;;;;;6278068;22;43046;-81
2023/10/29 08:09:29;;;;;;;;;;;20.10;78.80;;;;;;6276846;22;42977;-83
2023/10/29 08:11:55;;;;;;;;;;;20.20;79.00;;;;;;6278035;22;42888;-83
2023/10/29 08:14:20;;;;;;;;;;;20.10;79.50;;;;;;6278765;22;43374;-80
2023/10/29 08:16:46;;;;;;;;;;;20.20;79.50;;;;;;6278069;22;42736;-83
2023/10/29 08:19:11;;;;;;;;;;;20.10;79.70;;;;;;6277016;22;42765;-81
2023/10/29 08:21:37;;;;;;;;;;;20.20;79.10;;;;;;6278104;22;43376;-81
2023/10/29 08:24:02;;;;;;;;;;;20.40;79.70;;;;;;6250533;22;43783;-79
2023/10/29 08:26:29;;;;;;;;;;;20.10;79.30;;;;;;6276695;22;42729;-80
2023/10/29 08:28:55;;;;;;;;;;;20.20;79.40;;;;;;6277096;22;43682;-83
2023/10/29 08:31:21;;;;;;;;;;;20.10;79.50;;;;;;6276924;22;42785;-79
2023/10/29 08:33:47;;;;;;;;;;;20.20;79.50;;;;;;6278894;22;44321;-83
2023/10/29 08:36:15;;;;;;;;;;;20.20;79.70;;;;;;6278107;22;42833;-80
2023/10/29 08:38:41;;;;;;;;;;;20.20;79.60;;;;;;6276975;22;43120;-80
2023/10/29 08:41:13;;;;;;;;;;;20.20;79.70;;;;;;6277951;22;42845;-81
2023/10/29 08:43:39;;;;;;;;;;;20.00;77.80;;;;;;6277102;22;43435;-79
2023/10/29 08:46:04;;;;;;;;;;;20.00;79.60;;;;;;6276793;22;42870;-81
2023/10/29 08:48:30;;;;;;;;;;;20.20;79.70;;;;;;6276809;22;42923;-79
2023/10/29 08:50:55;;;;;;;;;;;20.00;79.70;;;;;;6250117;22;42994;-79
2023/10/29 08:53:21;;;;;;;;;;;20.30;79.90;;;;;;6277529;22;42848;-79
2023/10/29 08:55:46;;;;;;;;;;;20.20;79.30;;;;;;6277924;22;42879;-80
2023/10/29 08:58:12;;;;;;;;;;;20.10;79.70;;;;;;6277988;22;43683;-79
2023/10/29 09:00:38;;;;;;;;;;;20.30;79.70;;;;;;6276530;22;42867;-80
2023/10/29 09:03:03;;;;;;;;;;;20.10;79.50;;;;;;6275996;22;42961;-81
2023/10/29 09:05:29;;;;;;;;;;;20.10;79.80;;;;;;6275742;22;43452;-78
2023/10/29 09:07:54;;;;;;;;;;;20.10;79.70;;;;;;6277246;22;42894;-81
2023/10/29 09:10:20;;;;;;;;;;;20.10;79.80;;;;;;6277658;22;42991;-80
2023/10/29 09:12:45;;;;;;;;;;;20.10;79.80;;;;;;6277120;22;43486;-81
2023/10/29 09:15:12;;;;;;;;;;;20.30;80.00;;;;;;6277623;22;42857;-78
2023/10/29 09:17:37;;;;;;;;;;;20.10;79.90;;;;;;6281803;22;42833;-78
2023/10/29 09:20:03;;;;;;;;;;;20.00;79.90;;;;;;6285047;22;42982;-80
2023/10/29 09:22:29;;;;;;;;;;;20.10;79.70;;;;;;6284932;22;42738;-80
2023/10/29 09:24:54;;;;;;;;;;;20.30;79.90;;;;;;6278029;22;42821;-82
2023/10/29 09:27:20;;;;;;;;;;;20.10;80.00;;;;;;6277729;22;43283;-80
2023/10/29 09:29:45;;;;;;;;;;;20.00;80.00;;;;;;6276004;22;42970;-80
2023/10/29 09:32:13;;;;;;;;;;;20.10;80.00;;;;;;6277352;22;43029;-79
2023/10/29 09:37:14;;;;;;;;;;;20.20;78.60;;;;;;6341271;22;42799;-80
2023/10/29 09:39:39;;;;;;;;;;;20.20;79.60;;;;;;6339514;22;42813;-83
2023/10/29 09:42:08;;;;;;;;;;;20.00;80.00;;;;;;6339637;22;42859;-81
2023/10/29 09:44:40;;;;;;;;;;;20.10;79.40;;;;;;6288928;22;43019;-80
2023/10/29 09:47:14;;;;;;;;;;;20.10;77.80;;;;;;6276468;22;42929;-82
2023/10/29 09:49:39;;;;;;;;;;;20.10;78.20;;;;;;6278515;22;42776;-84
2023/10/29 09:52:06;;;;;;;;;;;20.20;80.20;;;;;;6275599;22;42915;-82
2023/10/29 09:54:31;;;;;;;;;;;20.10;79.90;;;;;;6275428;22;42854;-80
2023/10/29 09:56:57;;;;;;;;;;;20.30;80.30;;;;;;6277082;22;42832;-82
2023/10/29 09:59:23;;;;;;;;;;;20.10;80.20;;;;;;6276300;22;42755;-79
2023/10/29 10:01:49;;;;;;;;;;;20.10;79.70;;;;;;6277138;22;42823;-79
2023/10/29 10:04:14;;;;;;;;;;;20.20;80.50;;;;;;6276253;22;42962;-83
2023/10/29 10:06:40;;;;;;;;;;;20.10;80.20;;;;;;6277518;22;42829;-80
2023/10/29 10:09:06;;;;;;;;;;;20.00;80.20;;;;;;6279282;22;42966;-82
2023/10/29 10:11:32;;;;;;;;;;;20.10;80.40;;;;;;6278349;22;42839;-82
2023/10/29 10:13:57;;;;;;;;;;;20.20;80.30;;;;;;6276832;22;42952;-83
2023/10/29 10:16:23;;;;;;;;;;;20.10;80.40;;;;;;6276418;22;43345;-79
2023/10/29 10:18:56;;;;;;;;;;;20.30;80.50;;;;;;6276683;22;42911;-83
2023/10/29 10:21:23;;;;;;;;;;;20.00;78.50;;;;;;6277071;22;42819;-83
2023/10/29 10:23:52;;;;;;;;;;;20.10;80.40;;;;;;6277050;22;42956;-81
2023/10/29 10:26:28;;;;;;;;;;;20.10;78.70;;;;;;6277155;22;42923;-79
2023/10/29 10:28:55;;;;;;;;;;;20.10;80.00;;;;;;6277075;22;42894;-81
2023/10/29 10:31:20;;;;;;;;;;;20.00;80.50;;;;;;6277491;22;43576;-81
2023/10/29 10:33:46;;;;;;;;;;;20.10;80.50;;;;;;6275798;22;42932;-82
2023/10/29 10:36:11;;;;;;;;;;;20.20;80.70;;;;;;6275758;22;42930;-79
2023/10/29 10:38:50;;;;;;;;;;;20.10;80.50;;;;;;6276558;22;42759;-78
2023/10/29 10:41:15;;;;;;;;;;;20.10;80.50;;;;;;6276519;22;43485;-80
2023/10/29 10:43:42;;;;;;;;;;;20.10;80.70;;;;;;6275356;22;42979;-79
2023/10/29 10:46:07;;;;;;;;;;;20.10;80.50;;;;;;6275772;22;42983;-81
2023/10/29 10:48:34;;;;;;;;;;;20.30;80.60;;;;;;6276183;22;42898;-80
2023/10/29 10:51:01;;;;;;;;;;;20.20;80.50;;;;;;6277051;22;42902;-79
2023/10/29 10:53:26;;;;;;;;;;;20.10;80.50;;;;;;6278131;22;42827;-80
2023/10/29 10:55:53;;;;;;;;;;;20.10;80.20;;;;;;6277645;22;43435;-80
2023/10/29 11:01:31;;;;;;;;;;;20.00;79.10;;;;;;6267359;22;43251;-81
2023/10/29 11:03:57;;;;;;;;;;;20.20;78.60;;;;;;6250076;22;42975;-79
2023/10/29 11:06:23;;;;;;;;;;;19.90;80.10;;;;;;6276386;22;42953;-82
2023/10/29 11:08:49;;;;;;;;;;;20.00;80.80;;;;;;6276576;22;42763;-80
2023/10/29 11:11:15;;;;;;;;;;;20.00;80.60;;;;;;6276487;22;43975;-81
2023/10/29 11:13:41;;;;;;;;;;;20.10;80.80;;;;;;6276156;22;42807;-80
2023/10/29 11:16:20;;;;;;;;;;;20.00;81.30;;;;;;6275956;22;43603;-80
2023/10/29 11:18:46;;;;;;;;;;;20.10;80.20;;;;;;6248234;22;42820;-81
2023/10/29 11:21:29;;;;;;;;;;;20.10;80.90;;;;;;6275593;22;43628;-80
2023/10/29 11:24:30;;;;;;;;;;;20.00;80.80;;;;;;6248374;22;42922;-80
2023/10/29 11:27:13;;;;;;;;;;;20.00;79.00;;;;;;6150833;23;43015;-82
2023/10/29 11:29:42;;;;;;;;;;;20.10;79.10;;;;;;6151650;23;42989;-83
2023/10/29 11:32:24;;;;;;;;;;;20.00;79.10;;;;;;6151080;23;42844;-81
2023/10/29 11:35:10;;;;;;;;;;;20.10;79.20;;;;;;6152207;23;43137;-82
2023/10/29 11:37:37;;;;;;;;;;;20.20;81.00;;;;;;6125578;23;45550;-83
2023/10/29 11:40:21;;;;;;;;;;;20.10;80.90;;;;;;6127016;23;42858;-83
2023/10/29 11:42:46;;;;;;;;;;;20.10;79.20;;;;;;6151579;23;43484;-78
2023/10/29 11:45:27;;;;;;;;;;;20.20;81.10;;;;;;6156062;23;42910;-85
2023/10/29 11:48:14;;;;;;;;;;;20.10;79.30;;;;;;6159979;23;43894;-82
2023/10/29 11:50:40;;;;;;;;;;;20.20;79.30;;;;;;6152597;23;42985;-83
2023/10/29 11:53:06;;;;;;;;;;;20.20;81.20;;;;;;6152660;23;43562;-83
2023/10/29 11:55:44;;;;;;;;;;;20.00;81.30;;;;;;6152792;23;42838;-80
2023/10/29 11:58:10;;;;;;;;;;;20.10;79.40;;;;;;6151813;23;43005;-82
2023/10/29 12:00:42;;;;;;;;;;;20.00;80.60;;;;;;6204514;22;43017;-84
2023/10/29 12:03:13;;;;;;;;;;;19.90;79.30;;;;;;6277962;22;43772;-83
2023/10/29 12:05:39;;;;;;;;;;;20.00;80.30;;;;;;6277876;22;42973;-84
2023/10/29 12:08:04;;;;;;;;;;;20.20;81.60;;;;;;6276172;22;43691;-83
2023/10/29 12:10:30;;;;;;;;;;;19.90;80.90;;;;;;6276894;22;42982;-81
2023/10/29 12:12:56;;;;;;;;;;;20.20;81.30;;;;;;6275197;22;42879;-84
2023/10/29 12:15:24;;;;;;;;;;;20.20;81.10;;;;;;6277279;22;42922;-84
2023/10/29 12:17:49;;;;;;;;;;;20.10;81.10;;;;;;6277418;22;42916;-83
2023/10/29 12:20:22;;;;;;;;;;;20.10;81.20;;;;;;6277453;22;42894;-83
2023/10/29 12:22:51;;;;;;;;;;;20.10;79.40;;;;;;6277233;22;42889;-83
2023/10/29 12:25:18;;;;;;;;;;;20.00;81.20;;;;;;6277507;22;42796;-83
2023/10/29 12:27:44;;;;;;;;;;;20.00;81.20;;;;;;6278191;22;42886;-84
2023/10/29 12:30:29;;;;;;;;;;;20.20;81.90;;;;;;6279417;22;42834;-84
2023/10/29 12:33:13;;;;;;;;;;;20.10;80.70;;;;;;6277284;22;42898;-85
2023/10/29 12:35:39;;;;;;;;;;;20.20;81.40;;;;;;6277827;22;42931;-84
2023/10/29 12:38:05;;;;;;;;;;;20.10;81.20;;;;;;6278091;22;43432;-83
2023/10/29 12:40:30;;;;;;;;;;;19.90;81.30;;;;;;6277516;22;42811;-82
2023/10/29 12:42:57;;;;;;;;;;;19.50;81.20;;;;;;6277893;22;43588;-84
2023/10/29 12:45:26;;;;;;;;;;;20.00;81.40;;;;;;6276878;22;42789;-84
2023/10/29 12:48:08;;;;;;;;;;;20.10;81.40;;;;;;6278519;22;42807;-84
2023/10/29 12:50:47;;;;;;;;;;;20.10;79.70;;;;;;6276878;22;42863;-84
2023/10/29 12:53:19;;;;;;;;;;;20.10;79.70;;;;;;6278106;22;43802;-83
2023/10/29 12:55:45;;;;;;;;;;;20.10;81.50;;;;;;6275816;22;42887;-83
2023/10/29 12:58:11;;;;;;;;;;;20.20;81.60;;;;;;6277262;22;43411;-84
2023/10/29 13:00:37;;;;;;;;;;;20.00;81.50;;;;;;6277951;22;42941;-81
2023/10/29 13:03:04;;;;;;;;;;;20.10;81.60;;;;;;6276430;22;42787;-80
2023/10/29 13:05:30;;;;;;;;;;;20.00;81.60;;;;;;6278502;22;42900;-83
2023/10/29 13:07:57;;;;;;;;;;;20.30;81.70;;;;;;6278090;22;42863;-84
2023/10/29 13:10:23;;;;;;;;;;;20.10;81.00;;;;;;6276964;22;42850;-82
2023/10/29 13:12:49;;;;;;;;;;;20.20;81.80;;;;;;6276639;22;43034;-83
2023/10/29 13:15:15;;;;;;;;;;;20.10;81.60;;;;;;6278565;22;42830;-84
2023/10/29 13:17:40;;;;;;;;;;;20.00;81.50;;;;;;6251119;22;44414;-80
2023/10/29 13:22:50;;;;;;;;;;;20.10;80.10;;;;;;6257237;22;42986;-83
2023/10/29 13:25:18;;;;;;;;;;;20.20;79.50;;;;;;6249385;22;42801;-80
2023/10/29 13:27:43;;;;;;;;;;;20.10;81.00;;;;;;6250042;22;43948;-81
2023/10/29 13:30:09;;;;;;;;;;;20.00;81.20;;;;;;6277002;22;42960;-85
2023/10/29 13:32:35;;;;;;;;;;;20.10;81.20;;;;;;6276661;22;43353;-83
2023/10/29 13:35:00;;;;;;;;;;;20.20;82.30;;;;;;6277645;22;42883;-81
2023/10/29 13:37:26;;;;;;;;;;;20.10;81.70;;;;;;6250831;22;44301;-83
2023/10/29 13:39:52;;;;;;;;;;;20.20;81.80;;;;;;6277242;22;42949;-80
2023/10/29 13:42:22;;;;;;;;;;;20.10;82.10;;;;;;6276891;22;43396;-80
2023/10/29 13:52:33;;;;;;;;;;;20.10;80.40;;;;;;6253402;22;43403;-81
2023/10/29 13:54:59;;;;;;;;;;;20.00;81.30;;;;;;6248456;22;42800;-80
2023/10/29 13:57:24;;;;;;;;;;;20.20;82.10;;;;;;6277252;22;42978;-82
2023/10/29 13:59:50;;;;;;;;;;;20.20;82.10;;;;;;6277284;22;43002;-81
2023/10/29 14:02:16;;;;;;;;;;;20.10;81.90;;;;;;6277135;22;42866;-83
2023/10/29 14:04:42;;;;;;;;;;;20.10;82.20;;;;;;6275536;22;42855;-81
2023/10/29 14:07:08;;;;;;;;;;;20.20;82.10;;;;;;6278610;22;42755;-78
2023/10/29 14:09:34;;;;;;;;;;;20.20;82.10;;;;;;6280077;22;42836;-82
2023/10/29 14:11:59;;;;;;;;;;;20.00;82.10;;;;;;6286396;22;42696;-83
2023/10/29 14:14:25;;;;;;;;;;;20.00;82.00;;;;;;6279649;22;42882;-84
2023/10/29 14:16:50;;;;;;;;;;;20.30;82.10;;;;;;6277020;22;42833;-84
2023/10/29 14:19:16;;;;;;;;;;;20.10;82.10;;;;;;6250452;22;42940;-83
2023/10/29 14:21:41;;;;;;;;;;;20.20;82.30;;;;;;6276829;22;43674;-84
2023/10/29 14:24:07;;;;;;;;;;;20.30;82.10;;;;;;6276479;22;42848;-80
2023/10/29 14:26:33;;;;;;;;;;;20.10;81.50;;;;;;6276779;22;42949;-81
2023/10/29 14:28:59;;;;;;;;;;;20.10;82.10;;;;;;6276001;22;42871;-83